createdAt,value
2023-03-08T00:00:54.481Z,12.10
2023-03-08T00:06:57.530Z,13.10
2023-03-08T00:13:00.540Z,13.40
2023-03-08T00:19:03.539Z,14.10
2023-03-08T00:25:08.880Z,13.00
2023-03-08T00:31:13.513Z,13.10
2023-03-08T00:37:16.396Z,14.80
2023-03-08T00:43:22.260Z,13.90
2023-03-08T00:49:25.199Z,14.10
2023-03-08T00:55:28.017Z,14.50
2023-03-08T01:01:34.111Z,13.50
2023-03-08T01:07:37.267Z,11.10
2023-03-08T01:13:40.459Z,12.70
2023-03-08T01:19:43.876Z,12.60
2023-03-08T01:25:46.834Z,14.80
2023-03-08T01:31:49.790Z,14.00
2023-03-08T01:37:55.400Z,14.90
2023-03-08T01:43:58.416Z,16.90
2023-03-08T01:50:06.469Z,16.60
2023-03-08T01:56:12.113Z,17.90
2023-03-08T02:02:18.171Z,17.50
2023-03-08T02:08:22.665Z,17.60
2023-03-08T02:14:27.215Z,19.60
2023-03-08T02:20:32.882Z,17.50
2023-03-08T02:26:41.969Z,16.80
2023-03-08T02:32:44.886Z,18.70
2023-03-08T02:38:47.790Z,16.90
2023-03-08T02:44:50.677Z,16.40
2023-03-08T02:50:53.694Z,17.10
2023-03-08T02:56:59.334Z,16.70
2023-03-08T03:03:02.410Z,14.00
2023-03-08T03:09:11.333Z,17.90
2023-03-08T03:15:14.730Z,13.10
2023-03-08T03:21:18.110Z,13.50
2023-03-08T03:27:21.077Z,16.20
2023-03-08T03:33:24.695Z,14.60
2023-03-08T03:39:34.617Z,12.80
2023-03-08T03:45:38.565Z,13.80
2023-03-08T03:51:41.586Z,11.70
2023-03-08T03:57:58.300Z,11.60
2023-03-08T04:04:01.808Z,12.60
2023-03-08T04:10:06.807Z,12.60
2023-03-08T04:16:15.544Z,9.60
2023-03-08T04:22:22.530Z,11.30
2023-03-08T04:28:33.881Z,9.60
2023-03-08T04:34:37.625Z,9.80
2023-03-08T04:41:02.723Z,10.80
2023-03-08T04:47:11.984Z,11.60
2023-03-08T04:53:20.419Z,10.60
2023-03-08T04:59:23.418Z,10.20
2023-03-08T05:05:26.703Z,9.30
2023-03-08T05:11:30.661Z,8.90
2023-03-08T05:17:34.187Z,8.50
2023-03-08T05:23:37.499Z,11.60
2023-03-08T05:29:40.541Z,9.60
2023-03-08T05:35:43.937Z,10.30
2023-03-08T05:41:47.065Z,10.40
2023-03-08T05:47:51.840Z,9.00
2023-03-08T05:53:54.783Z,12.50
2023-03-08T05:59:58.166Z,12.90
2023-03-08T06:06:01.622Z,13.30
2023-03-08T06:12:06.033Z,10.60
2023-03-08T06:18:09.233Z,9.90
2023-03-08T06:24:12.595Z,10.10
2023-03-08T06:30:15.739Z,9.70
2023-03-08T06:36:20.779Z,11.10
2023-03-08T06:42:39.706Z,10.70
2023-03-08T06:48:43.776Z,11.00
2023-03-08T06:54:46.771Z,11.70
2023-03-08T07:00:50.055Z,9.00
2023-03-08T07:06:53.039Z,8.90
2023-03-08T07:12:56.313Z,16.80
2023-03-08T07:19:03.186Z,11.60
2023-03-08T07:25:08.947Z,10.40
2023-03-08T07:31:13.009Z,9.50
2023-03-08T07:37:17.931Z,9.00
2023-03-08T07:43:20.944Z,9.30
2023-03-08T07:49:33.628Z,9.40
2023-03-08T07:55:37.662Z,12.30
2023-03-08T08:01:43.150Z,10.00
2023-03-08T08:07:48.099Z,9.40
2023-03-08T08:13:51.052Z,11.20
2023-03-08T08:19:54.302Z,8.80
2023-03-08T08:25:57.939Z,9.50
2023-03-08T08:32:03.121Z,11.90
2023-03-08T08:38:06.086Z,10.20
2023-03-08T08:44:09.491Z,10.40
2023-03-08T08:50:14.122Z,8.30
2023-03-08T08:56:26.606Z,8.80
2023-03-08T09:02:30.922Z,10.30
2023-03-08T09:08:33.995Z,8.10
2023-03-08T09:14:36.964Z,9.50
2023-03-08T09:20:39.981Z,9.40
2023-03-08T09:26:43.362Z,10.50
2023-03-08T09:32:46.533Z,10.10
2023-03-08T09:38:54.101Z,11.00
2023-03-08T09:45:02.319Z,8.50
2023-03-08T09:51:11.262Z,7.80
2023-03-08T09:57:18.336Z,8.10
2023-03-08T10:03:48.813Z,9.40
2023-03-08T10:10:10.308Z,7.70
2023-03-08T10:16:20.806Z,8.20
2023-03-08T10:22:32.402Z,7.80
2023-03-08T10:28:35.459Z,9.50
2023-03-08T10:34:38.871Z,9.80
2023-03-08T10:40:41.783Z,8.10
2023-03-08T10:46:48.856Z,7.50
2023-03-08T10:52:52.521Z,8.30
2023-03-08T10:58:57.619Z,8.40
2023-03-08T11:05:01.115Z,7.50
2023-03-08T11:11:08.162Z,7.80
2023-03-08T11:17:18.110Z,7.20
2023-03-08T11:24:00.599Z,9.30
2023-03-08T11:30:06.663Z,6.90
2023-03-08T11:36:24.638Z,8.00
2023-03-08T11:42:42.001Z,6.80
2023-03-08T11:49:07.187Z,6.60
2023-03-08T11:55:52.440Z,6.80
2023-03-08T12:02:05.105Z,7.40
2023-03-08T12:08:14.671Z,7.50
2023-03-08T12:14:33.659Z,7.00
2023-03-08T12:20:46.360Z,6.50
2023-03-08T12:27:16.360Z,8.00
2023-03-08T12:33:20.032Z,8.80
2023-03-08T12:39:31.181Z,7.30
2023-03-08T12:45:34.611Z,7.30
2023-03-08T12:51:40.361Z,6.70
2023-03-08T12:57:52.063Z,8.10
2023-03-08T13:03:55.660Z,7.70
2023-03-08T13:10:00.732Z,7.20
2023-03-08T13:16:17.065Z,9.10
2023-03-08T13:22:25.311Z,6.30
2023-03-08T13:28:46.163Z,8.90
2023-03-08T13:35:04.923Z,6.90
2023-03-08T13:41:07.977Z,6.70
2023-03-08T13:47:33.563Z,7.00
2023-03-08T13:53:37.552Z,7.60
2023-03-08T13:59:48.037Z,6.90
2023-03-08T14:05:51.048Z,6.50
2023-03-08T14:12:00.014Z,5.80
2023-03-08T14:18:04.797Z,10.80
2023-03-08T14:24:21.586Z,6.60
2023-03-08T14:30:30.136Z,7.20
2023-03-08T14:36:33.975Z,7.60
2023-03-08T14:42:45.818Z,8.30
2023-03-08T14:48:58.101Z,7.80
2023-03-08T14:55:22.510Z,9.10
2023-03-08T15:01:36.730Z,8.20
2023-03-08T15:07:40.154Z,6.70
2023-03-08T15:13:45.992Z,5.60
2023-03-08T15:19:48.993Z,9.30
2023-03-08T15:25:52.588Z,9.10
2023-03-08T15:31:56.068Z,5.90
2023-03-08T15:37:59.376Z,3.90
2023-03-08T15:44:02.374Z,4.90
2023-03-08T15:50:07.418Z,5.70
2023-03-08T15:56:10.471Z,4.30
2023-03-08T16:02:15.843Z,5.10
2023-03-08T16:08:19.223Z,5.90
2023-03-08T16:14:22.050Z,5.70
2023-03-08T16:20:27.964Z,6.20
2023-03-08T16:26:31.304Z,7.20
2023-03-08T16:32:34.487Z,7.90
2023-03-08T16:38:37.569Z,6.50
2023-03-08T16:44:41.844Z,7.30
2023-03-08T16:51:03.441Z,9.50
2023-03-08T16:57:18.685Z,7.60
2023-03-08T17:03:22.504Z,8.50
2023-03-08T17:09:27.818Z,12.40
2023-03-08T17:15:31.374Z,10.50
2023-03-08T17:21:38.338Z,8.00
2023-03-08T17:27:42.047Z,8.90
2023-03-08T17:33:45.314Z,8.90
2023-03-08T17:39:48.672Z,7.90
2023-03-08T17:46:04.925Z,9.80
2023-03-08T17:52:08.198Z,10.40
2023-03-08T17:58:12.011Z,11.00
2023-03-08T18:04:22.294Z,9.60
2023-03-08T18:10:26.957Z,9.70
2023-03-08T18:16:32.595Z,9.40
2023-03-08T18:22:38.538Z,11.10
2023-03-08T18:28:42.346Z,11.50
2023-03-08T18:34:45.953Z,10.70
2023-03-08T18:40:49.032Z,11.50
2023-03-08T18:46:52.668Z,11.30
2023-03-08T18:52:58.120Z,12.80
2023-03-08T18:59:04.396Z,14.40
2023-03-08T19:05:11.124Z,11.70
2023-03-08T19:11:17.272Z,10.30
2023-03-08T19:17:20.678Z,14.30
2023-03-08T19:23:26.463Z,11.20
2023-03-08T19:29:33.148Z,12.10
2023-03-08T19:41:42.584Z,13.80
2023-03-08T19:47:46.062Z,16.40
2023-03-08T19:53:49.307Z,16.60
2023-03-08T19:59:53.166Z,20.80
2023-03-08T20:06:07.953Z,14.10
2023-03-08T20:12:14.261Z,16.70
2023-03-08T20:18:31.958Z,16.30
2023-03-08T20:24:57.357Z,13.60
2023-03-08T20:31:09.825Z,14.80
2023-03-08T20:37:16.993Z,13.60
2023-03-08T20:43:21.210Z,19.70
2023-03-08T20:49:26.558Z,14.80
2023-03-08T20:55:29.964Z,17.90
2023-03-08T21:01:36.167Z,18.40
2023-03-08T21:07:39.635Z,18.90
2023-03-08T21:13:43.300Z,15.20
2023-03-08T21:19:46.404Z,20.70
2023-03-08T21:25:51.348Z,18.40
2023-03-08T21:31:54.672Z,19.60
2023-03-08T21:37:59.975Z,18.60
2023-03-08T21:44:05.120Z,20.10
2023-03-08T21:50:09.995Z,18.20
2023-03-08T21:56:16.880Z,23.30
2023-03-08T22:02:20.159Z,19.20
2023-03-08T22:08:25.942Z,21.80
2023-03-08T22:14:29.279Z,17.60
2023-03-08T22:20:35.489Z,18.40
2023-03-08T22:26:38.538Z,17.30
2023-03-08T22:32:42.201Z,18.80
2023-03-08T22:38:45.549Z,20.90
2023-03-08T22:44:48.508Z,19.90
2023-03-08T22:51:01.586Z,18.50
2023-03-08T22:57:13.906Z,12.50
2023-03-08T23:03:17.104Z,10.80
2023-03-08T23:09:24.860Z,10.20
2023-03-08T23:15:28.202Z,10.40
2023-03-08T23:21:32.019Z,9.80
2023-03-08T23:27:35.112Z,8.90
2023-03-08T23:33:40.809Z,10.30
2023-03-08T23:39:44.032Z,9.50
2023-03-08T23:45:47.049Z,12.80
2023-03-08T23:51:52.868Z,8.30
2023-03-08T23:58:01.306Z,9.40
